createdAt,value
2023-04-05T00:01:54.407Z,0.86
2023-04-05T00:04:21.387Z,0.67
2023-04-05T00:06:52.855Z,0.30
2023-04-05T00:09:20.774Z,0.33
2023-04-05T00:11:47.969Z,0.31
2023-04-05T00:14:15.334Z,0.62
2023-04-05T00:16:42.287Z,0.56
2023-04-05T00:19:11.032Z,0.56
2023-04-05T00:21:39.312Z,0.59
2023-04-05T00:24:06.370Z,0.54
2023-04-05T00:26:32.984Z,-0.08
2023-04-05T00:28:59.619Z,0.39
2023-04-05T00:31:26.317Z,0.37
2023-04-05T00:33:53.289Z,0.16
2023-04-05T00:36:21.027Z,0.51
2023-04-05T00:38:49.790Z,0.41
2023-04-05T00:41:16.795Z,0.19
2023-04-05T00:43:43.834Z,0.16
2023-04-05T00:46:10.812Z,0.23
2023-04-05T00:48:38.375Z,0.40
2023-04-05T00:51:09.122Z,0.30
2023-04-05T00:53:36.193Z,-0.21
2023-04-05T00:56:03.036Z,-0.15
2023-04-05T00:58:30.647Z,-0.04
2023-04-05T01:01:19.627Z,0.67
2023-04-05T01:03:53.745Z,-0.29
2023-04-05T01:06:34.420Z,0.80
2023-04-05T01:09:23.290Z,0.95
2023-04-05T01:11:55.716Z,0.27
2023-04-05T01:14:22.455Z,0.96
2023-04-05T01:16:58.025Z,1.01
2023-04-05T01:19:30.126Z,1.11
2023-04-05T01:22:20.248Z,1.19
2023-04-05T01:25:10.998Z,1.34
2023-04-05T01:28:10.378Z,1.63
2023-04-05T01:30:39.985Z,1.22
2023-04-05T01:33:17.074Z,1.78
2023-04-05T01:36:14.297Z,0.81
2023-04-05T01:38:44.085Z,1.46
2023-04-05T01:41:12.195Z,1.81
2023-04-05T01:43:38.819Z,1.93
2023-04-05T01:46:05.572Z,1.71
2023-04-05T01:48:32.403Z,1.80
2023-04-05T01:51:00.762Z,1.77
2023-04-05T01:53:27.285Z,2.09
2023-04-05T01:55:54.186Z,1.41
2023-04-05T01:58:20.831Z,2.01
2023-04-05T02:00:47.576Z,1.52
2023-04-05T02:03:14.316Z,1.96
2023-04-05T02:05:42.269Z,1.45
2023-04-05T02:08:10.023Z,2.04
2023-04-05T02:10:36.617Z,1.41
2023-04-05T02:13:03.332Z,1.99
2023-04-05T02:15:30.304Z,1.40
2023-04-05T02:17:57.808Z,1.89
2023-04-05T02:20:26.024Z,1.87
2023-04-05T02:22:53.682Z,1.42
2023-04-05T02:25:21.997Z,1.34
2023-04-05T02:27:48.685Z,1.28
2023-04-05T02:30:15.576Z,1.00
2023-04-05T02:32:42.676Z,0.95
2023-04-05T02:35:09.710Z,1.11
2023-04-05T02:37:36.641Z,0.98
2023-04-05T02:40:07.896Z,0.79
2023-04-05T02:42:34.443Z,0.74
2023-04-05T02:45:01.162Z,0.73
2023-04-05T02:47:28.032Z,0.72
2023-04-05T02:49:58.034Z,0.64
2023-04-05T02:52:27.411Z,0.71
2023-04-05T02:54:54.121Z,0.87
2023-04-05T02:57:25.839Z,0.47
2023-04-05T03:00:00.712Z,1.06
2023-04-05T03:02:29.817Z,0.86
2023-04-05T03:04:56.461Z,0.92
2023-04-05T03:07:25.771Z,0.81
2023-04-05T03:09:53.964Z,0.80
2023-04-05T03:12:21.632Z,0.64
2023-04-05T03:14:49.301Z,0.85
2023-04-05T03:17:20.454Z,0.63
2023-04-05T03:19:56.604Z,0.52
2023-04-05T03:22:25.426Z,0.64
2023-04-05T03:24:52.797Z,0.84
2023-04-05T03:27:21.860Z,0.78
2023-04-05T03:30:05.975Z,0.50
2023-04-05T03:32:37.086Z,1.00
2023-04-05T03:35:16.847Z,0.48
2023-04-05T03:37:46.344Z,0.75
2023-04-05T03:40:13.529Z,0.85
2023-04-05T03:42:40.596Z,0.75
2023-04-05T03:45:07.667Z,0.78
2023-04-05T03:47:34.928Z,0.09
2023-04-05T03:50:05.863Z,0.54
2023-04-05T03:52:32.486Z,0.37
2023-04-05T03:55:00.105Z,0.30
2023-04-05T03:57:30.272Z,0.36
2023-04-05T04:00:00.250Z,-0.15
2023-04-05T04:02:30.156Z,0.42
2023-04-05T04:04:57.795Z,0.17
2023-04-05T04:07:26.717Z,0.21
2023-04-05T04:09:55.370Z,-0.55
2023-04-05T04:12:22.570Z,-0.19
2023-04-05T04:14:55.889Z,-0.58
2023-04-05T04:17:41.702Z,-0.17
2023-04-05T04:20:29.545Z,-0.14
2023-04-05T04:23:19.419Z,-0.09
2023-04-05T04:26:09.617Z,-0.88
2023-04-05T04:28:38.689Z,-0.22
2023-04-05T04:31:23.855Z,-0.34
2023-04-05T04:34:02.323Z,-0.23
2023-04-05T04:37:00.763Z,-0.13
2023-04-05T04:39:48.722Z,-0.35
2023-04-05T04:42:38.817Z,-0.96
2023-04-05T04:45:24.323Z,-0.35
2023-04-05T04:48:01.257Z,-0.29
2023-04-05T04:50:50.085Z,-0.40
2023-04-05T04:53:20.958Z,-0.44
2023-04-05T04:55:49.980Z,-0.52
2023-04-05T04:58:17.352Z,-0.26
2023-04-05T05:00:52.869Z,-0.67
2023-04-05T05:03:19.511Z,-0.08
2023-04-05T05:05:48.628Z,-0.24
2023-04-05T05:08:21.320Z,0.11
2023-04-05T05:10:52.496Z,-0.13
2023-04-05T05:13:19.176Z,0.15
2023-04-05T05:15:46.684Z,0.10
2023-04-05T05:18:13.493Z,-0.01
2023-04-05T05:20:41.526Z,-0.05
2023-04-05T05:23:08.436Z,-0.31
2023-04-05T05:25:35.206Z,-0.04
2023-04-05T05:28:01.802Z,-0.54
2023-04-05T05:30:29.586Z,-0.07
2023-04-05T05:32:57.831Z,-0.01
2023-04-05T05:35:24.507Z,0.19
2023-04-05T05:37:52.528Z,0.28
2023-04-05T05:40:19.242Z,-0.35
2023-04-05T05:42:45.902Z,0.39
2023-04-05T05:45:12.548Z,-0.05
2023-04-05T05:47:39.299Z,-0.12
2023-04-05T05:50:07.279Z,0.50
2023-04-05T05:52:35.872Z,0.23
2023-04-05T05:55:02.526Z,0.76
2023-04-05T05:57:29.201Z,0.82
2023-04-05T05:59:55.705Z,1.16
2023-04-05T06:02:22.387Z,1.17
2023-04-05T06:04:49.711Z,1.29
2023-04-05T06:07:16.389Z,1.28
2023-04-05T06:09:45.208Z,1.55
2023-04-05T06:12:11.921Z,1.83
2023-04-05T06:14:38.569Z,1.42
2023-04-05T06:17:05.261Z,2.18
2023-04-05T06:19:31.922Z,2.41
2023-04-05T06:22:00.747Z,2.70
2023-04-05T06:24:31.673Z,2.78
2023-04-05T06:26:58.934Z,2.37
2023-04-05T06:29:25.961Z,3.00
2023-04-05T06:31:53.237Z,3.34
2023-04-05T06:34:19.921Z,3.17
2023-04-05T06:36:46.686Z,3.61
2023-04-05T06:39:14.386Z,3.73
2023-04-05T06:41:41.066Z,3.55
2023-04-05T06:44:07.786Z,3.94
2023-04-05T06:46:36.728Z,4.34
2023-04-05T06:49:04.123Z,4.83
2023-04-05T06:51:31.362Z,5.46
2023-04-05T06:53:58.103Z,6.31
2023-04-05T06:56:24.938Z,6.98
2023-04-05T06:58:51.661Z,7.42
2023-04-05T07:01:18.605Z,7.72
2023-04-05T07:03:45.492Z,8.31
2023-04-05T07:06:12.817Z,8.90
2023-04-05T07:08:39.488Z,9.39
2023-04-05T07:11:06.090Z,9.24
2023-04-05T07:13:32.708Z,9.56
2023-04-05T07:16:01.191Z,9.75
2023-04-05T07:18:28.301Z,9.72
2023-04-05T07:20:59.995Z,10.64
2023-04-05T07:23:27.976Z,10.46
2023-04-05T07:25:55.008Z,10.88
2023-04-05T07:28:21.637Z,10.57
2023-04-05T07:30:48.551Z,10.89
2023-04-05T07:33:15.960Z,11.20
2023-04-05T07:35:43.022Z,11.21
2023-04-05T07:38:11.265Z,11.19
2023-04-05T07:40:37.934Z,11.74
2023-04-05T07:43:04.731Z,11.52
2023-04-05T07:45:31.397Z,11.94
2023-04-05T07:47:58.126Z,12.15
2023-04-05T07:50:24.765Z,12.11
2023-04-05T07:52:51.364Z,12.10
2023-04-05T07:55:18.077Z,12.71
2023-04-05T07:57:44.632Z,12.92
2023-04-05T08:00:13.230Z,12.94
2023-04-05T08:02:40.241Z,13.44
2023-04-05T08:05:07.214Z,13.93
2023-04-05T08:07:33.857Z,14.64
2023-04-05T08:10:00.713Z,14.39
2023-04-05T08:12:27.355Z,14.05
2023-04-05T08:14:54.152Z,13.98
2023-04-05T08:17:20.818Z,14.61
2023-04-05T08:19:49.948Z,14.87
2023-04-05T08:22:17.786Z,14.63
2023-04-05T08:24:45.021Z,14.01
2023-04-05T08:27:12.286Z,14.83
2023-04-05T08:29:39.012Z,15.07
2023-04-05T08:32:06.114Z,14.91
2023-04-05T08:34:32.812Z,15.31
2023-04-05T08:37:00.048Z,15.12
2023-04-05T08:39:26.919Z,14.99
2023-04-05T08:42:16.852Z,15.43
2023-04-05T08:44:45.061Z,15.77
2023-04-05T08:47:15.246Z,15.47
2023-04-05T08:49:45.789Z,15.96
2023-04-05T08:52:12.784Z,16.03
2023-04-05T08:54:39.503Z,15.43
2023-04-05T08:57:07.538Z,16.01
2023-04-05T08:59:39.069Z,16.40
2023-04-05T09:02:12.236Z,16.03
2023-04-05T09:04:44.757Z,16.34
2023-04-05T09:07:14.232Z,16.16
2023-04-05T09:09:46.169Z,16.25
2023-04-05T09:12:14.068Z,16.70
2023-04-05T09:14:41.620Z,16.56
2023-04-05T09:17:08.387Z,16.75
2023-04-05T09:19:35.123Z,16.74
2023-04-05T09:22:08.842Z,16.69
2023-04-05T09:24:43.958Z,17.40
2023-04-05T09:27:12.731Z,17.21
2023-04-05T09:29:51.051Z,16.52
2023-04-05T09:32:19.332Z,15.32
2023-04-05T09:34:46.297Z,15.25
2023-04-05T09:37:24.332Z,14.53
2023-04-05T09:40:01.660Z,16.15
2023-04-05T09:42:32.127Z,15.92
2023-04-05T09:45:05.037Z,15.92
2023-04-05T09:47:42.199Z,16.67
2023-04-05T09:50:14.894Z,17.32
2023-04-05T09:52:42.415Z,17.73
2023-04-05T09:55:09.719Z,17.81
2023-04-05T09:57:38.674Z,17.95
2023-04-05T10:00:06.821Z,17.40
2023-04-05T10:02:41.422Z,17.64
2023-04-05T10:05:13.732Z,17.92
2023-04-05T10:07:41.441Z,18.58
2023-04-05T10:10:12.795Z,19.06
2023-04-05T10:12:41.490Z,19.16
2023-04-05T10:15:09.370Z,18.92
2023-04-05T10:17:53.374Z,18.44
2023-04-05T10:20:25.333Z,18.47
2023-04-05T10:22:51.971Z,18.20
2023-04-05T10:25:24.153Z,18.50
2023-04-05T10:27:57.662Z,18.71
2023-04-05T10:30:28.046Z,19.89
2023-04-05T10:33:12.877Z,20.12
2023-04-05T10:35:54.494Z,20.90
2023-04-05T10:38:29.055Z,20.45
2023-04-05T10:41:06.861Z,20.74
2023-04-05T10:43:35.376Z,21.19
2023-04-05T10:46:04.165Z,20.87
2023-04-05T10:49:12.141Z,21.10
2023-04-05T10:51:39.406Z,20.86
2023-04-05T10:54:09.932Z,20.21
2023-04-05T10:56:37.571Z,20.66
2023-04-05T10:59:05.263Z,21.41
2023-04-05T11:01:33.213Z,21.16
2023-04-05T11:04:14.997Z,21.79
2023-04-05T11:06:42.976Z,21.48
2023-04-05T11:09:16.377Z,22.29
2023-04-05T11:11:51.773Z,22.00
2023-04-05T11:14:40.942Z,22.01
2023-04-05T11:17:25.415Z,22.19
2023-04-05T11:19:52.519Z,22.04
2023-04-05T11:22:29.066Z,21.99
2023-04-05T11:25:01.819Z,22.16
2023-04-05T11:27:30.568Z,22.82
2023-04-05T11:29:59.194Z,23.27
2023-04-05T11:33:00.536Z,23.37
2023-04-05T11:35:27.973Z,23.32
2023-04-05T11:38:01.058Z,23.30
2023-04-05T11:40:36.187Z,23.24
2023-04-05T11:43:09.534Z,23.56
2023-04-05T11:45:44.962Z,23.77
2023-04-05T11:48:14.686Z,23.90
2023-04-05T11:50:42.406Z,23.82
2023-04-05T11:53:12.795Z,23.83
2023-04-05T11:55:47.272Z,23.94
2023-04-05T11:58:23.795Z,23.98
2023-04-05T12:01:07.117Z,23.81
2023-04-05T12:03:36.835Z,23.66
2023-04-05T12:06:05.606Z,24.29
2023-04-05T12:08:52.993Z,24.08
2023-04-05T12:11:31.128Z,23.34
2023-04-05T12:13:59.879Z,22.82
2023-04-05T12:16:27.153Z,23.96
2023-04-05T12:19:02.775Z,23.33
2023-04-05T12:21:29.508Z,23.66
2023-04-05T12:23:56.732Z,22.35
2023-04-05T12:26:23.998Z,23.02
2023-04-05T12:28:56.215Z,23.78
2023-04-05T12:31:57.450Z,24.59
2023-04-05T12:34:27.869Z,25.06
2023-04-05T12:36:54.618Z,24.48
2023-04-05T12:39:21.365Z,24.76
2023-04-05T12:41:59.415Z,24.44
2023-04-05T12:44:30.381Z,24.30
2023-04-05T12:47:07.485Z,24.34
2023-04-05T12:49:38.290Z,24.11
2023-04-05T12:52:04.932Z,24.58
2023-04-05T12:54:32.340Z,24.12
2023-04-05T12:57:01.582Z,24.48
2023-04-05T12:59:28.120Z,25.04
2023-04-05T13:01:54.832Z,25.60
2023-04-05T13:04:23.130Z,25.66
2023-04-05T13:06:50.134Z,25.80
2023-04-05T13:09:17.180Z,25.69
2023-04-05T13:11:43.928Z,25.69
2023-04-05T13:14:10.634Z,25.82
2023-04-05T13:16:37.301Z,25.15
2023-04-05T13:19:04.023Z,25.79
2023-04-05T13:21:30.974Z,26.09
2023-04-05T13:23:57.593Z,25.99
2023-04-05T13:26:24.291Z,25.91
2023-04-05T13:28:50.926Z,25.63
2023-04-05T13:31:17.596Z,25.79
2023-04-05T13:33:44.355Z,25.66
2023-04-05T13:36:12.533Z,25.98
2023-04-05T13:38:39.743Z,25.27
2023-04-05T13:41:06.595Z,24.91
2023-04-05T13:43:33.197Z,25.44
2023-04-05T13:45:59.895Z,24.90
2023-04-05T13:48:26.605Z,24.73
2023-04-05T13:50:53.236Z,24.46
2023-04-05T13:53:19.860Z,24.65
2023-04-05T13:55:46.491Z,24.36
2023-04-05T13:58:14.370Z,24.36
2023-04-05T14:00:41.518Z,24.26
2023-04-05T14:03:08.626Z,24.69
2023-04-05T14:05:35.436Z,24.62
2023-04-05T14:08:02.053Z,25.01
2023-04-05T14:10:28.663Z,24.53
2023-04-05T14:12:55.202Z,25.17
2023-04-05T14:15:21.879Z,25.05
2023-04-05T14:17:48.670Z,24.63
2023-04-05T14:20:15.612Z,25.11
2023-04-05T14:22:42.274Z,25.43
2023-04-05T14:25:09.293Z,24.85
2023-04-05T14:27:41.159Z,24.09
2023-04-05T14:30:09.103Z,24.08
2023-04-05T14:32:35.740Z,24.27
2023-04-05T14:35:02.368Z,23.89
2023-04-05T14:37:29.011Z,23.91
2023-04-05T14:39:55.663Z,23.80
2023-04-05T14:42:22.787Z,23.85
2023-04-05T14:44:49.436Z,22.90
2023-04-05T14:47:16.360Z,22.64
2023-04-05T14:49:42.988Z,22.88
2023-04-05T14:52:09.844Z,23.69
2023-04-05T14:54:36.558Z,23.23
2023-04-05T14:57:03.310Z,23.68
2023-04-05T14:59:30.881Z,23.92
2023-04-05T15:01:57.823Z,24.43
2023-04-05T15:04:25.348Z,23.89
2023-04-05T15:06:51.984Z,23.96
2023-04-05T15:09:18.626Z,24.20
2023-04-05T15:11:45.306Z,24.30
2023-04-05T15:14:21.064Z,24.26
2023-04-05T15:16:55.678Z,23.96
2023-04-05T15:19:22.324Z,24.08
2023-04-05T15:21:48.949Z,24.34
2023-04-05T15:24:15.733Z,24.59
2023-04-05T15:26:42.296Z,25.06
2023-04-05T15:29:08.943Z,25.32
2023-04-05T15:31:36.022Z,24.79
2023-04-05T15:34:02.892Z,25.25
2023-04-05T15:36:29.982Z,24.41
2023-04-05T15:38:58.145Z,23.70
2023-04-05T15:41:24.813Z,23.56
2023-04-05T15:43:51.466Z,23.47
2023-04-05T15:46:18.274Z,23.28
2023-04-05T15:48:45.296Z,23.12
2023-04-05T15:51:12.374Z,23.59
2023-04-05T15:53:39.013Z,23.70
2023-04-05T15:56:06.061Z,23.42
2023-04-05T15:58:32.603Z,23.51
2023-04-05T16:00:59.292Z,22.70
2023-04-05T16:03:26.134Z,22.56
2023-04-05T16:05:52.793Z,22.70
2023-04-05T16:08:19.457Z,22.72
2023-04-05T16:10:46.122Z,22.70
2023-04-05T16:13:12.825Z,22.35
2023-04-05T16:15:39.526Z,22.27
2023-04-05T16:18:06.733Z,21.48
2023-04-05T16:20:33.434Z,21.33
2023-04-05T16:23:00.400Z,21.29
2023-04-05T16:25:31.703Z,21.07
2023-04-05T16:28:00.467Z,21.36
2023-04-05T16:30:31.088Z,21.30
2023-04-05T16:32:58.322Z,20.80
2023-04-05T16:35:25.350Z,19.79
2023-04-05T16:37:52.206Z,18.76
2023-04-05T16:40:18.884Z,18.60
2023-04-05T16:42:45.863Z,18.21
2023-04-05T16:45:12.567Z,17.94
2023-04-05T16:47:39.197Z,17.80
2023-04-05T16:50:06.475Z,18.24
2023-04-05T16:52:33.122Z,17.63
2023-04-05T16:54:59.829Z,17.28
2023-04-05T16:57:26.625Z,17.03
2023-04-05T16:59:53.377Z,16.70
2023-04-05T17:02:20.221Z,15.95
2023-04-05T17:04:46.952Z,15.08
2023-04-05T17:07:13.570Z,15.44
2023-04-05T17:09:40.456Z,15.69
2023-04-05T17:12:07.269Z,15.65
2023-04-05T17:14:33.929Z,15.74
2023-04-05T17:17:00.625Z,15.10
2023-04-05T17:19:27.466Z,13.92
2023-04-05T17:21:54.122Z,14.02
2023-04-05T17:24:20.912Z,13.64
2023-04-05T17:26:47.702Z,13.65
2023-04-05T17:29:14.531Z,14.38
2023-04-05T17:31:42.169Z,14.33
2023-04-05T17:34:13.008Z,13.48
2023-04-05T17:36:40.273Z,13.55
2023-04-05T17:39:07.120Z,13.13
2023-04-05T17:41:33.893Z,12.25
2023-04-05T17:44:00.521Z,12.12
2023-04-05T17:46:39.749Z,11.46
2023-04-05T17:49:08.208Z,11.38
2023-04-05T17:51:34.914Z,11.17
2023-04-05T17:54:01.626Z,10.73
2023-04-05T17:56:28.261Z,10.60
2023-04-05T17:58:54.940Z,9.82
2023-04-05T18:01:21.621Z,10.05
2023-04-05T18:03:48.308Z,9.78
2023-04-05T18:06:17.171Z,9.67
2023-04-05T18:08:43.794Z,8.97
2023-04-05T18:11:10.522Z,9.19
2023-04-05T18:13:37.180Z,8.93
2023-04-05T18:16:03.971Z,8.32
2023-04-05T18:18:31.483Z,8.12
2023-04-05T18:21:01.743Z,8.35
2023-04-05T18:23:28.577Z,8.14
2023-04-05T18:25:55.496Z,8.03
2023-04-05T18:28:23.637Z,7.96
2023-04-05T18:30:51.649Z,7.67
2023-04-05T18:33:18.760Z,7.62
2023-04-05T18:35:50.421Z,6.95
2023-04-05T18:38:17.228Z,7.11
2023-04-05T18:40:43.902Z,7.05
2023-04-05T18:43:10.671Z,6.60
2023-04-05T18:45:38.751Z,6.46
2023-04-05T18:48:05.819Z,6.62
2023-04-05T18:50:32.608Z,6.72
2023-04-05T18:52:59.243Z,6.44
2023-04-05T18:55:25.900Z,6.46
2023-04-05T18:57:52.501Z,6.25
2023-04-05T19:00:19.450Z,6.27
2023-04-05T19:02:46.149Z,6.08
2023-04-05T19:05:13.023Z,5.99
2023-04-05T19:07:39.705Z,5.93
2023-04-05T19:10:07.122Z,5.23
2023-04-05T19:12:33.739Z,5.73
2023-04-05T19:15:00.496Z,5.69
2023-04-05T19:17:27.481Z,5.51
2023-04-05T19:19:54.117Z,5.41
2023-04-05T19:22:20.845Z,5.35
2023-04-05T19:24:47.426Z,5.17
2023-04-05T19:27:14.099Z,5.01
2023-04-05T19:29:40.746Z,4.54
2023-04-05T19:32:08.920Z,4.57
2023-04-05T19:34:37.785Z,5.00
2023-04-05T19:37:04.627Z,4.77
2023-04-05T19:39:33.564Z,4.63
2023-04-05T19:42:00.243Z,4.56
2023-04-05T19:44:48.036Z,4.23
2023-04-05T19:47:14.723Z,4.47
2023-04-05T19:49:42.406Z,4.37
2023-04-05T19:52:12.821Z,4.43
2023-04-05T19:54:42.457Z,4.41
2023-04-05T19:57:09.875Z,4.24
2023-04-05T19:59:36.499Z,4.01
2023-04-05T20:02:19.335Z,4.20
2023-04-05T20:04:45.953Z,3.50
2023-04-05T20:07:13.089Z,3.97
2023-04-05T20:09:40.145Z,3.54
2023-04-05T20:12:07.169Z,3.93
2023-04-05T20:14:48.751Z,3.68
2023-04-05T20:17:18.670Z,3.79
2023-04-05T20:20:00.632Z,3.80
2023-04-05T20:22:28.976Z,3.33
2023-04-05T20:24:55.653Z,3.78
2023-04-05T20:27:22.372Z,3.56
2023-04-05T20:29:49.087Z,3.17
2023-04-05T20:32:17.039Z,3.64
2023-04-05T20:34:45.979Z,3.64
2023-04-05T20:37:13.405Z,3.56
2023-04-05T20:39:40.203Z,3.12
2023-04-05T20:42:08.359Z,3.42
2023-04-05T20:44:35.026Z,2.98
2023-04-05T20:47:01.735Z,3.17
2023-04-05T20:49:28.965Z,3.28
2023-04-05T20:51:57.160Z,3.28
2023-04-05T20:54:24.292Z,3.15
2023-04-05T20:56:50.997Z,2.71
2023-04-05T20:59:17.599Z,2.71
2023-04-05T21:01:47.147Z,2.62
2023-04-05T21:04:14.471Z,2.75
2023-04-05T21:06:41.644Z,3.13
2023-04-05T21:09:08.645Z,3.16
2023-04-05T21:11:35.742Z,2.52
2023-04-05T21:14:02.413Z,2.95
2023-04-05T21:16:29.131Z,3.10
2023-04-05T21:18:55.903Z,2.91
2023-04-05T21:21:22.564Z,2.89
2023-04-05T21:23:50.028Z,2.23
2023-04-05T21:26:16.574Z,2.66
2023-04-05T21:28:43.251Z,2.91
2023-04-05T21:31:09.995Z,2.28
2023-04-05T21:33:36.699Z,2.77
2023-04-05T21:36:03.474Z,2.20
2023-04-05T21:38:30.148Z,2.83
2023-04-05T21:40:56.801Z,2.66
2023-04-05T21:43:23.464Z,2.72
2023-04-05T21:45:51.046Z,2.41
2023-04-05T21:48:17.663Z,2.70
2023-04-05T21:50:44.453Z,2.58
2023-04-05T21:53:11.201Z,1.93
2023-04-05T21:55:37.845Z,2.29
2023-04-05T21:58:04.458Z,2.69
2023-04-05T22:00:31.336Z,2.44
2023-04-05T22:02:58.070Z,2.43
2023-04-05T22:05:36.154Z,2.45
2023-04-05T22:08:05.663Z,2.55
2023-04-05T22:10:32.767Z,2.44
2023-04-05T22:12:59.479Z,1.95
2023-04-05T22:15:26.256Z,1.86
2023-04-05T22:17:53.223Z,2.39
2023-04-05T22:20:19.855Z,2.33
2023-04-05T22:22:46.734Z,2.16
2023-04-05T22:25:13.447Z,2.37
2023-04-05T22:27:40.397Z,2.16
2023-04-05T22:30:08.462Z,2.19
2023-04-05T22:32:35.707Z,2.04
2023-04-05T22:35:04.327Z,2.19
2023-04-05T22:37:35.586Z,1.53
2023-04-05T22:40:04.323Z,2.09
2023-04-05T22:42:31.165Z,1.89
2023-04-05T22:44:57.790Z,1.68
2023-04-05T22:47:24.579Z,1.30
2023-04-05T22:49:51.886Z,1.68
2023-04-05T22:52:18.572Z,1.76
2023-04-05T22:54:45.324Z,1.15
2023-04-05T22:57:12.848Z,1.65
2023-04-05T22:59:39.495Z,1.90
2023-04-05T23:02:06.324Z,1.72
2023-04-05T23:04:32.940Z,1.37
2023-04-05T23:06:59.589Z,1.79
2023-04-05T23:09:27.203Z,1.86
2023-04-05T23:11:53.752Z,1.81
2023-04-05T23:14:20.457Z,1.75
2023-04-05T23:16:47.072Z,1.71
2023-04-05T23:19:13.702Z,1.74
2023-04-05T23:21:40.319Z,1.88
2023-04-05T23:24:07.355Z,1.91
2023-04-05T23:26:34.328Z,1.62
2023-04-05T23:29:01.010Z,1.75
2023-04-05T23:31:27.774Z,1.85
2023-04-05T23:33:54.785Z,2.01
2023-04-05T23:36:22.079Z,2.01
2023-04-05T23:38:48.984Z,1.81
2023-04-05T23:41:15.699Z,1.77
2023-04-05T23:43:42.313Z,1.75
2023-04-05T23:46:09.030Z,1.29
2023-04-05T23:48:35.795Z,1.37
2023-04-05T23:51:02.373Z,1.84
2023-04-05T23:53:29.009Z,1.78
2023-04-05T23:55:56.884Z,1.82
2023-04-05T23:58:23.847Z,1.62
